Domov               UVHVVR             MKGP            O straneh              
ZDRAVSTVENO VARSTVO RASTLIN
  MREŽA AGROMET. POSTAJ
 ► PROGNOSTIČNA OBVESTILA
AGROMETEOROLOŠKI PODATKI -
ARSO
OBVLADOVANJE TVEGANJ ZARADI
NEUGODNIH VREMENSKIH RAZMER
  ► NARAVNE NESREČE
  ► SUŠA/MOČA
  ► NAMAKANJE
  ► ŽLED (gozdarstvo)
KARTOGRAFSKI PRIKAZI
SPLETNE POVEZAVE
PROJEKTI IN PUBLIKACIJE

AGROMETEOROLOŠKA MREŽA: VREMENSKE POSTAJE IN FENOLOŠKA OPAZOVANJA

Pregled podatkov za lokacijo Maribor - BTŠ, meteorološka postaja 35810

Pregled senzorjev na lokaciji

ID Ime Zadnja
vrednost
Datum in čas
zadnje
spremembe
(Lokalni čas)
Tip
senzorja
4297 Omočenost lista (U) 0 U 20.10.2020 13:30 A730WET
1723 Padavine (mm) 0 mm 20.10.2020 13:30 Generic 0.2 mm
1722 Relativna vlaga 2 m (% RH) 75.65 % RH 20.10.2020 13:30 Generic 0 - 100 %
1721 Temperatura 2 m (°C) 13.24 °C 20.10.2020 13:30 Generic -40 - +60 °C
4296 Smer vetra (°) 147.16 ° 20.10.2020 13:30 Generic 0 - 360
4295 Hitrost vetra (km/h) 0.9 km/h 20.10.2020 13:30 Generic 100 km/h

Pregled podatkov zadnjih 24 ur

Zap.
št.
Datum in čas
(Centralno
evropski čas)
Maribor - BTŠ
Omočenost
lista
Padavine Relativna
vlaga
2
m
Temperatura
2
m
Smer
vetra
Hitrost
vetra
1 20.10.2020 14:00
2 20.10.2020 13:30
3 20.10.2020 13:00
4 20.10.2020 12:30 0 0 75.7 13.2 147.2 0.9
5 20.10.2020 12:00 0 0 73.7 13.3 264.7 1.1
6 20.10.2020 11:30 0 0 74.4 12.7 70.9 1.4
7 20.10.2020 11:00 0 0 76.5 11.6 70.3 1.6
8 20.10.2020 10:30 0 0 78.6 10.5 107.3 2.1
9 20.10.2020 10:00 0 0 77 10.5 75 1.2
10 20.10.2020 09:30 1 0 80.6 9.8 134.8 1.1
11 20.10.2020 09:00 3 0 88.5 8 82.9 0.9
12 20.10.2020 08:30 10 0 99 6.2 275.1 0.9
13 20.10.2020 08:00 10 0 99.6 4.5 241.1 0.8
14 20.10.2020 07:30 10 0 99.3 2.6 301.9 0.3
15 20.10.2020 07:00 10 0 99 2.4 274.2 0.1
16 20.10.2020 06:30 10 0 99 3 280.5 0.5
17 20.10.2020 06:00 10 0 99.3 4.2 290.3 1.3
18 20.10.2020 05:30 10 0 99.4 4.7 290.2 2.3
19 20.10.2020 05:00 10 0 99.3 4.6 344.7 2.7
20 20.10.2020 04:30 10 0 99.3 4.6 282.9 2.1
21 20.10.2020 04:00 10 0 99.3 4.4 290.7 2.4
22 20.10.2020 03:30 10 0 99.1 4.1 284.7 1.9
23 20.10.2020 03:00 10 0 99.1 4.2 287.4 1.7
24 20.10.2020 02:30 10 0 98.8 3.3 278.2 0.9
25 20.10.2020 02:00 10 0 98.7 3.5 286.5 1.1
26 20.10.2020 01:30 10 0 98.7 3.5 262.7 0.7
27 20.10.2020 01:00 10 0 98.4 3.5 246.7 0.6
28 20.10.2020 00:30 10 0 98.2 3.3 250.5 0.7
29 20.10.2020 00:00 10 0 98 4 304.1 0.3
30 19.10.2020 23:30 10 0 98.5 4.3 286.9 1
31 19.10.2020 23:00 10 0 97.5 3.4 199 0.4
32 19.10.2020 22:30 10 0 97.2 4.1 322.1 0.7
33 19.10.2020 22:00 10 0 97.8 5.3 285.9 0.8
34 19.10.2020 21:30 10 0 97.5 4.2 259.3 0.4
35 19.10.2020 21:00 10 0 97.2 4.6 356.6 0.5
36 19.10.2020 20:30 10 0 96.8 4.6 314.6 0.4
37 19.10.2020 20:00 10 0 95.5 5 280.1 0.5
38 19.10.2020 19:30 10 0 92.6 6.1 331.2 0.5
39 19.10.2020 19:00 9 0 88.4 7.4 318.3 0.9
40 19.10.2020 18:30 2 0 80.7 9 348.6 0.7
41 19.10.2020 18:00 0 0 73.3 10.4 7.9 0.7
42 19.10.2020 17:30 0 0 65.8 12 56.6 1.6
43 19.10.2020 17:00 0 0 63.1 12.6 157.2 1.6
44 19.10.2020 16:30 0 0 61.6 13 129.3 1.7
45 19.10.2020 16:00 0 0 60 13.9 76.9 1.7
46 19.10.2020 15:30 0 0 57.3 14.2 124.7 2.3
47 19.10.2020 15:00 0 0 53.3 15.7 125.7 2.7
48 19.10.2020 14:30 0 0 56 14.9 98.7 3.1
© 2011 Ministrstvo za kmetijstvo, gozdarstvo in prehrano. Vse pravice pridržane.